Fort George G Meade, MD

9:01 PM EST on December 03, 2016 (GMT -0500)
Tipton

Weather History for KFME - March, 2014

Change the Weather History Date:

Monday, March 31, 2014

  Actual Average (KBWI) Record (KBWI)
Temperature  
Mean Temperature 50 °F 48 °F  
Max Temperature 64 °F 59 °F 86 °F (1998)
Min Temperature 37 °F 38 °F 20 °F (1964)
Degree Days  
Heating Degree Days 14 17  
Month to date heating degree days 667  
Since 1 July heating degree days 4261  
Cooling Degree Days 0 0  
Month to date cooling degree days 1  
Year to date cooling degree days 1  
Moisture  
Dew Point 32 °F    
Average Humidity 56    
Maximum Humidity 87    
Minimum Humidity 27    
Precipitation  
Precipitation 0.00 in 0.13 in 1.62 in (1934)
Month to date precipitation 3.90  
Year to date precipitation 9.85  
Snow  
Snow 0.00 in 0.00 in 1.40 in (1997)
Month to date snowfall 1.9  
Since 1 July snowfall 20.1  
Snow Depth -    
Sea Level Pressure  
Sea Level Pressure 29.99 in    
Wind  
Wind Speed 8 mph (NNW)    
Max Wind Speed 18 mph    
Max Gust Speed 28 mph    
Visibility 10 miles    
Events      
T = Trace of Precipitation, MM = Missing Value Source: NWS Daily Summary

Daily Weather History Graph

Daily Weather History Graph

Search for Another Location

Airport or City:

Trip Planner

Search our weather history database for the weather conditions in past years. The results will help you decide how hot, cold, wet, or windy it might be!

Date:

Astronomy

Mar. 31, 2014 Rise Set
Actual Time 6:53 AM EDT 7:29 PM EDT
Civil Twilight 6:26 AM EDT 7:56 PM EDT
Nautical Twilight 5:54 AM EDT 8:28 PM EDT
Astronomical Twilight 5:22 AM EDT 9:01 PM EDT
Moon 7:15 AM EDT (3/31) 8:45 PM EDT (3/31)
Length of Visible Light 13h 30m
Length of Day
12h 36m
New Moon, 1% of the Moon is Illuminated
Mar 31
New Moon
Apr 7
First Quarter
Apr 15
Full
Apr 22
Last Quarter
Apr 29
New

Hourly Weather History & Observations

Time (EDT) Temp. Windchill Dew Point Humidity Pressure Visibility Wind Dir Wind Speed Gust Speed Precip Events Conditions
12:06 AM 39.2 °F 35.0 °F 35.6 °F 87% 29.83 in 10.0 mi NNW 5.8 mph - N/A   Overcast
12:27 AM 39.2 °F 34.2 °F 33.8 °F 81% 29.84 in 10.0 mi NNW 6.9 mph - N/A   Overcast
12:48 AM 41.0 °F 36.4 °F 33.8 °F 76% 29.85 in 10.0 mi NNW 6.9 mph 16.1 mph N/A   Overcast
1:06 AM 39.2 °F 35.0 °F 33.8 °F 81% 29.86 in 10.0 mi North 5.8 mph - N/A   Overcast
1:27 AM 39.2 °F 35.0 °F 33.8 °F 81% 29.86 in 10.0 mi NNW 5.8 mph - N/A   Overcast
1:48 AM 39.2 °F 34.2 °F 33.8 °F 81% 29.86 in 10.0 mi NNW 6.9 mph - N/A   Overcast
2:06 AM 39.2 °F 33.6 °F 33.8 °F 81% 29.86 in 10.0 mi NW 8.1 mph - N/A   Overcast
2:27 AM 41.0 °F 35.2 °F 33.8 °F 76% 29.87 in 10.0 mi NNW 9.2 mph - N/A   Overcast
2:48 AM 41.0 °F 35.8 °F 33.8 °F 76% 29.87 in 10.0 mi NNW 8.1 mph - N/A   Overcast
3:06 AM 41.0 °F 35.2 °F 33.8 °F 76% 29.87 in 10.0 mi NNW 9.2 mph - N/A   Overcast
3:27 AM 41.0 °F 36.4 °F 33.8 °F 76% 29.88 in 10.0 mi NNW 6.9 mph - N/A   Overcast
3:48 AM 41.0 °F 36.4 °F 33.8 °F 76% 29.88 in 10.0 mi NW 6.9 mph - N/A   Overcast
4:06 AM 41.0 °F 36.4 °F 33.8 °F 76% 29.89 in 10.0 mi NNW 6.9 mph - N/A   Overcast
4:27 AM 41.0 °F 37.1 °F 33.8 °F 76% 29.90 in 10.0 mi NNW 5.8 mph - N/A   Overcast
4:48 AM 41.0 °F 36.4 °F 33.8 °F 76% 29.91 in 10.0 mi NNW 6.9 mph - N/A   Overcast
5:06 AM 41.0 °F 36.4 °F 32.0 °F 70% 29.92 in 10.0 mi NW 6.9 mph - N/A   Overcast
5:27 AM 39.2 °F 33.0 °F 32.0 °F 75% 29.92 in 10.0 mi WNW 9.2 mph - N/A   Mostly Cloudy
5:48 AM 41.0 °F 35.2 °F 32.0 °F 70% 29.93 in 10.0 mi WNW 9.2 mph 16.1 mph N/A   Mostly Cloudy
6:06 AM 39.2 °F 33.0 °F 32.0 °F 75% 29.94 in 10.0 mi NW 9.2 mph 17.3 mph N/A   Scattered Clouds
6:27 AM 37.4 °F 30.8 °F 32.0 °F 81% 29.94 in 10.0 mi NW 9.2 mph - N/A   Clear
6:48 AM 37.4 °F 32.1 °F 32.0 °F 81% 29.95 in 10.0 mi NW 6.9 mph 17.3 mph N/A   Clear
7:06 AM 37.4 °F 32.1 °F 32.0 °F 81% 29.95 in 10.0 mi NW 6.9 mph - N/A   Clear
7:27 AM 37.4 °F 32.8 °F 32.0 °F 81% 29.96 in 10.0 mi NW 5.8 mph - N/A   Clear
7:48 AM 39.2 °F 32.5 °F 32.0 °F 75% 29.97 in 10.0 mi NW 10.4 mph 16.1 mph N/A   Clear
8:09 AM 41.0 °F 33.9 °F 32.0 °F 70% 29.98 in 10.0 mi NW 12.7 mph 20.7 mph N/A   Clear
8:27 AM 42.8 °F 37.5 °F 32.0 °F 66% 29.98 in 10.0 mi NW 9.2 mph 20.7 mph N/A   Clear
8:48 AM 44.6 °F 39.7 °F 32.0 °F 61% 29.98 in 10.0 mi NNW 9.2 mph 19.6 mph N/A   Clear
9:09 AM 44.6 °F 38.1 °F 32.0 °F 61% 29.99 in 10.0 mi NNW 13.8 mph 23.0 mph N/A   Clear
9:27 AM 46.4 °F 40.4 °F 32.0 °F 57% 30.00 in 10.0 mi NNW 13.8 mph 26.5 mph N/A   Clear
9:48 AM 46.4 °F 40.4 °F 32.0 °F 57% 30.01 in 10.0 mi NNW 13.8 mph 20.7 mph N/A   Clear
10:09 AM 48.2 °F - 32.0 °F 54% 30.03 in 10.0 mi North 12.7 mph 19.6 mph N/A   Clear
10:27 AM 50.0 °F - 32.0 °F 50% 30.03 in 10.0 mi NNW 15.0 mph 20.7 mph N/A   Clear
10:48 AM 50.0 °F - 32.0 °F 50% 30.03 in 10.0 mi North 12.7 mph 21.9 mph N/A   Clear
11:09 AM 51.8 °F - 32.0 °F 47% 30.03 in 10.0 mi NNW 13.8 mph 23.0 mph N/A   Clear
11:27 AM 51.8 °F - 32.0 °F 47% 30.04 in 10.0 mi NNW 15.0 mph 24.2 mph N/A   Clear
11:48 AM 53.6 °F - 32.0 °F 44% 30.04 in 10.0 mi NNW 16.1 mph 25.3 mph N/A   Clear
12:09 PM 55.4 °F - 32.0 °F 41% 30.05 in 10.0 mi NNW 12.7 mph 25.3 mph N/A   Clear
12:27 PM 55.4 °F - 32.0 °F 41% 30.05 in 10.0 mi North 18.4 mph 24.2 mph N/A   Clear
12:48 PM 57.2 °F - 32.0 °F 38% 30.04 in 10.0 mi NNW 13.8 mph 25.3 mph N/A   Clear
1:09 PM 59.0 °F - 32.0 °F 36% 30.04 in 10.0 mi NNW 18.4 mph 27.6 mph N/A   Clear
1:27 PM 59.0 °F - 32.0 °F 36% 30.04 in 10.0 mi NNW 11.5 mph 24.2 mph N/A   Clear
1:48 PM 60.8 °F - 32.0 °F 34% 30.03 in 10.0 mi NNW 13.8 mph 25.3 mph N/A   Clear
2:09 PM 60.8 °F - 32.0 °F 34% 30.03 in 10.0 mi NNW 11.5 mph 23.0 mph N/A   Clear
2:27 PM 60.8 °F - 30.2 °F 31% 30.03 in 10.0 mi NW 10.4 mph 26.5 mph N/A   Clear
2:48 PM 62.6 °F - 32.0 °F 32% 30.04 in 10.0 mi NW 12.7 mph 25.3 mph N/A   Clear
3:09 PM 62.6 °F - 30.2 °F 30% 30.03 in 10.0 mi NW 11.5 mph 23.0 mph N/A   Clear
3:27 PM 62.6 °F - 32.0 °F 32% 30.03 in 10.0 mi NW 16.1 mph 21.9 mph N/A   Clear
3:48 PM 62.6 °F - 32.0 °F 32% 30.03 in 10.0 mi NNW 10.4 mph 20.7 mph N/A   Clear
4:09 PM 62.6 °F - 28.4 °F 27% 30.02 in 10.0 mi NW 11.5 mph 19.6 mph N/A   Clear
4:30 PM 64.4 °F - 30.2 °F 28% 30.02 in 10.0 mi NNW 10.4 mph 21.9 mph N/A   Clear
4:48 PM 64.4 °F - 30.2 °F 28% 30.02 in 10.0 mi NNW 12.7 mph 25.3 mph N/A   Clear
5:09 PM 62.6 °F - 30.2 °F 30% 30.02 in 10.0 mi NW 9.2 mph 18.4 mph N/A   Clear
5:30 PM 62.6 °F - 30.2 °F 30% 30.02 in 10.0 mi NW 11.5 mph 17.3 mph N/A   Clear
5:48 PM 62.6 °F - 30.2 °F 30% 30.02 in 10.0 mi NNW 9.2 mph 17.3 mph N/A   Clear
6:09 PM 62.6 °F - 28.4 °F 27% 30.02 in 10.0 mi NNW 9.2 mph 20.7 mph N/A   Clear
6:30 PM 62.6 °F - 28.4 °F 27% 30.02 in 10.0 mi NNW 6.9 mph - N/A   Clear
6:48 PM 60.8 °F - 28.4 °F 29% 30.02 in 10.0 mi NNW 11.5 mph 17.3 mph N/A   Clear
7:09 PM 60.8 °F - 28.4 °F 29% 30.03 in 10.0 mi NW 8.1 mph - N/A   Clear
7:30 PM 59.0 °F - 28.4 °F 31% 30.03 in 10.0 mi NW 3.5 mph - N/A   Clear
7:48 PM 55.4 °F - 28.4 °F 36% 30.04 in 10.0 mi NW 3.5 mph - N/A   Clear
8:09 PM 53.6 °F - 28.4 °F 38% 30.05 in 10.0 mi Calm Calm - N/A   Clear
8:30 PM 50.0 °F - 30.2 °F 47% 30.06 in 10.0 mi Calm Calm - N/A   Clear
8:48 PM 48.2 °F - 32.0 °F 54% 30.07 in 10.0 mi Calm Calm - N/A   Clear
9:09 PM 46.4 °F - 30.2 °F 53% 30.08 in 10.0 mi Calm Calm - N/A   Clear
9:30 PM 46.4 °F - 33.8 °F 62% 30.08 in 10.0 mi Calm Calm - N/A   Clear
9:48 PM 44.6 °F - 33.8 °F 66% 30.08 in 10.0 mi Calm Calm - N/A   Clear
10:09 PM 42.8 °F - 32.0 °F 66% 30.09 in 10.0 mi Calm Calm - N/A   Clear
10:30 PM 41.0 °F - 32.0 °F 70% 30.09 in 10.0 mi Calm Calm - N/A   Clear
10:48 PM 41.0 °F - 32.0 °F 70% 30.10 in 10.0 mi Calm Calm - N/A   Clear
11:09 PM 39.2 °F - 32.0 °F 75% 30.11 in 10.0 mi Calm Calm - N/A   Clear
11:30 PM 39.2 °F - 32.0 °F 75% 30.11 in 10.0 mi Calm Calm - N/A   Clear
11:48 PM 37.4 °F - 32.0 °F 81% 30.11 in 10.0 mi Calm Calm - N/A   Clear